Terminal Aerodrome Forecast
Issued by NWS Lake Charles, LA

Home | Current Version | Previous Version | Text Only | Print | Product List | Glossary On
Versions: 1 2 3 4 5 6 7 8 9 10 11 12 13 14 15 16 17 18 19
000
FTUS44 KLCH 181300 AAB
TAFLCH
TAF AMD
KLCH 181300Z 1813/1912 VRB06KT P6SM -RA BKN012 BKN040 OVC080
     FM181600 23008KT P6SM -TSRA SCT019 OVC035CB
     FM182300 23004KT P6SM SCT070 SCT140
     FM191000 22003KT 6SM BR SCT003 BKN140=

USA.gov is the U.S. government's official web portal to all federal, state and local government web resources and services.